sensor_id;sensor_type;location;lat;lon;timestamp;temperature;humidity
25436;DHT22;13363;52.772;-3.890;2023-04-25T00:01:31;5.40;99.90
25436;DHT22;13363;52.772;-3.890;2023-04-25T00:03:59;5.50;99.90
25436;DHT22;13363;52.772;-3.890;2023-04-25T00:06:26;5.60;99.90
25436;DHT22;13363;52.772;-3.890;2023-04-25T00:08:52;5.60;99.90
25436;DHT22;13363;52.772;-3.890;2023-04-25T00:11:19;5.60;99.90
25436;DHT22;13363;52.772;-3.890;2023-04-25T00:13:44;5.50;99.90
25436;DHT22;13363;52.772;-3.890;2023-04-25T00:16:11;5.50;99.90
25436;DHT22;13363;52.772;-3.890;2023-04-25T00:18:41;5.50;99.90
25436;DHT22;13363;52.772;-3.890;2023-04-25T00:21:07;5.50;99.90
25436;DHT22;13363;52.772;-3.890;2023-04-25T00:23:33;5.40;99.90
25436;DHT22;13363;52.772;-3.890;2023-04-25T00:26:02;5.40;99.90
25436;DHT22;13363;52.772;-3.890;2023-04-25T00:28:28;5.40;99.90
25436;DHT22;13363;52.772;-3.890;2023-04-25T00:30:54;5.30;99.90
25436;DHT22;13363;52.772;-3.890;2023-04-25T00:33:19;5.20;99.90
25436;DHT22;13363;52.772;-3.890;2023-04-25T00:35:45;5.10;99.90
25436;DHT22;13363;52.772;-3.890;2023-04-25T00:38:11;5.10;99.90
25436;DHT22;13363;52.772;-3.890;2023-04-25T00:40:37;5.00;99.90
25436;DHT22;13363;52.772;-3.890;2023-04-25T00:43:03;4.90;99.90
25436;DHT22;13363;52.772;-3.890;2023-04-25T00:45:30;4.80;99.90
25436;DHT22;13363;52.772;-3.890;2023-04-25T00:47:56;4.70;99.90
25436;DHT22;13363;52.772;-3.890;2023-04-25T00:50:23;4.60;99.90
25436;DHT22;13363;52.772;-3.890;2023-04-25T00:52:49;4.60;99.90
25436;DHT22;13363;52.772;-3.890;2023-04-25T00:55:15;4.60;99.90
25436;DHT22;13363;52.772;-3.890;2023-04-25T00:57:42;4.50;99.90
25436;DHT22;13363;52.772;-3.890;2023-04-25T01:00:09;4.40;99.90
25436;DHT22;13363;52.772;-3.890;2023-04-25T01:02:36;4.40;99.90
25436;DHT22;13363;52.772;-3.890;2023-04-25T01:05:03;4.30;99.90
25436;DHT22;13363;52.772;-3.890;2023-04-25T01:07:29;4.30;99.90
25436;DHT22;13363;52.772;-3.890;2023-04-25T01:09:56;4.20;99.90
25436;DHT22;13363;52.772;-3.890;2023-04-25T01:12:22;4.10;99.90
25436;DHT22;13363;52.772;-3.890;2023-04-25T01:14:48;4.10;99.90
25436;DHT22;13363;52.772;-3.890;2023-04-25T01:17:14;4.10;99.90
25436;DHT22;13363;52.772;-3.890;2023-04-25T01:19:40;3.90;99.90
25436;DHT22;13363;52.772;-3.890;2023-04-25T01:22:06;3.90;99.90
25436;DHT22;13363;52.772;-3.890;2023-04-25T01:24:32;3.80;99.90
25436;DHT22;13363;52.772;-3.890;2023-04-25T01:26:59;3.80;99.90
25436;DHT22;13363;52.772;-3.890;2023-04-25T01:29:26;3.80;99.90
25436;DHT22;13363;52.772;-3.890;2023-04-25T01:31:53;3.80;99.90
25436;DHT22;13363;52.772;-3.890;2023-04-25T01:34:19;3.80;99.90
25436;DHT22;13363;52.772;-3.890;2023-04-25T01:36:49;3.80;99.90
25436;DHT22;13363;52.772;-3.890;2023-04-25T01:39:19;3.90;99.90
25436;DHT22;13363;52.772;-3.890;2023-04-25T01:41:48;3.90;99.90
25436;DHT22;13363;52.772;-3.890;2023-04-25T01:44:15;3.90;99.90
25436;DHT22;13363;52.772;-3.890;2023-04-25T01:46:41;3.80;99.90
25436;DHT22;13363;52.772;-3.890;2023-04-25T01:49:07;3.70;99.90
25436;DHT22;13363;52.772;-3.890;2023-04-25T01:51:33;3.50;99.90
25436;DHT22;13363;52.772;-3.890;2023-04-25T01:54:00;3.50;99.90
25436;DHT22;13363;52.772;-3.890;2023-04-25T01:56:30;3.40;99.90
25436;DHT22;13363;52.772;-3.890;2023-04-25T01:58:57;3.30;99.90
25436;DHT22;13363;52.772;-3.890;2023-04-25T02:01:23;3.20;99.90
25436;DHT22;13363;52.772;-3.890;2023-04-25T02:03:48;3.20;99.90
25436;DHT22;13363;52.772;-3.890;2023-04-25T02:06:14;3.10;99.90
25436;DHT22;13363;52.772;-3.890;2023-04-25T02:08:40;3.10;99.90
25436;DHT22;13363;52.772;-3.890;2023-04-25T02:11:06;3.20;99.90
25436;DHT22;13363;52.772;-3.890;2023-04-25T02:13:32;3.10;99.90
25436;DHT22;13363;52.772;-3.890;2023-04-25T02:15:57;3.10;99.90
25436;DHT22;13363;52.772;-3.890;2023-04-25T02:18:23;3.00;99.90
25436;DHT22;13363;52.772;-3.890;2023-04-25T02:20:49;2.90;99.90
25436;DHT22;13363;52.772;-3.890;2023-04-25T02:23:15;2.80;99.90
25436;DHT22;13363;52.772;-3.890;2023-04-25T02:25:41;2.80;99.90
25436;DHT22;13363;52.772;-3.890;2023-04-25T02:28:07;2.70;99.90
25436;DHT22;13363;52.772;-3.890;2023-04-25T02:30:33;2.70;99.90
25436;DHT22;13363;52.772;-3.890;2023-04-25T02:32:59;2.70;99.90
25436;DHT22;13363;52.772;-3.890;2023-04-25T02:35:25;2.70;99.90
25436;DHT22;13363;52.772;-3.890;2023-04-25T02:37:51;2.70;99.90
25436;DHT22;13363;52.772;-3.890;2023-04-25T02:40:16;2.70;99.90
25436;DHT22;13363;52.772;-3.890;2023-04-25T02:42:42;2.70;99.90
25436;DHT22;13363;52.772;-3.890;2023-04-25T02:45:08;2.70;99.90
25436;DHT22;13363;52.772;-3.890;2023-04-25T02:47:34;2.60;99.90
25436;DHT22;13363;52.772;-3.890;2023-04-25T02:50:00;2.60;99.90
25436;DHT22;13363;52.772;-3.890;2023-04-25T02:52:26;2.60;99.90
25436;DHT22;13363;52.772;-3.890;2023-04-25T02:54:52;2.50;99.90
25436;DHT22;13363;52.772;-3.890;2023-04-25T02:57:18;2.50;99.90
25436;DHT22;13363;52.772;-3.890;2023-04-25T02:59:44;2.50;99.90
25436;DHT22;13363;52.772;-3.890;2023-04-25T03:02:10;2.40;99.90
25436;DHT22;13363;52.772;-3.890;2023-04-25T03:04:35;2.40;99.90
25436;DHT22;13363;52.772;-3.890;2023-04-25T03:07:01;2.30;99.90
25436;DHT22;13363;52.772;-3.890;2023-04-25T03:09:27;2.30;99.90
25436;DHT22;13363;52.772;-3.890;2023-04-25T03:11:53;2.30;99.90
25436;DHT22;13363;52.772;-3.890;2023-04-25T03:14:19;2.40;99.90
25436;DHT22;13363;52.772;-3.890;2023-04-25T03:16:45;2.30;99.90
25436;DHT22;13363;52.772;-3.890;2023-04-25T03:19:11;2.20;99.90
25436;DHT22;13363;52.772;-3.890;2023-04-25T03:21:37;2.20;99.90
25436;DHT22;13363;52.772;-3.890;2023-04-25T03:24:04;2.20;99.90
25436;DHT22;13363;52.772;-3.890;2023-04-25T03:26:30;2.20;99.90
25436;DHT22;13363;52.772;-3.890;2023-04-25T03:28:56;2.20;99.90
25436;DHT22;13363;52.772;-3.890;2023-04-25T03:31:22;2.20;99.90
25436;DHT22;13363;52.772;-3.890;2023-04-25T03:33:48;2.20;99.90
25436;DHT22;13363;52.772;-3.890;2023-04-25T03:36:14;2.10;99.90
25436;DHT22;13363;52.772;-3.890;2023-04-25T03:38:40;2.00;99.90
25436;DHT22;13363;52.772;-3.890;2023-04-25T03:41:07;2.00;99.90
25436;DHT22;13363;52.772;-3.890;2023-04-25T03:43:33;2.00;99.90
25436;DHT22;13363;52.772;-3.890;2023-04-25T03:45:59;2.00;99.90
25436;DHT22;13363;52.772;-3.890;2023-04-25T03:48:26;2.00;99.90
25436;DHT22;13363;52.772;-3.890;2023-04-25T03:50:52;2.00;99.90
25436;DHT22;13363;52.772;-3.890;2023-04-25T03:53:18;1.90;99.90
25436;DHT22;13363;52.772;-3.890;2023-04-25T03:55:44;1.80;99.90
25436;DHT22;13363;52.772;-3.890;2023-04-25T03:58:10;1.70;99.90
25436;DHT22;13363;52.772;-3.890;2023-04-25T04:00:36;1.70;99.90
25436;DHT22;13363;52.772;-3.890;2023-04-25T04:03:02;1.70;99.90
25436;DHT22;13363;52.772;-3.890;2023-04-25T04:05:27;1.60;99.90
25436;DHT22;13363;52.772;-3.890;2023-04-25T04:07:54;1.60;99.90
25436;DHT22;13363;52.772;-3.890;2023-04-25T04:10:21;1.50;99.90
25436;DHT22;13363;52.772;-3.890;2023-04-25T04:12:47;1.50;99.90
25436;DHT22;13363;52.772;-3.890;2023-04-25T04:15:13;1.50;99.90
25436;DHT22;13363;52.772;-3.890;2023-04-25T04:17:39;1.40;99.90
25436;DHT22;13363;52.772;-3.890;2023-04-25T04:20:06;1.40;99.90
25436;DHT22;13363;52.772;-3.890;2023-04-25T04:22:33;1.40;99.90
25436;DHT22;13363;52.772;-3.890;2023-04-25T04:24:58;1.30;99.90
25436;DHT22;13363;52.772;-3.890;2023-04-25T04:27:24;1.30;99.90
25436;DHT22;13363;52.772;-3.890;2023-04-25T04:29:50;1.30;99.90
25436;DHT22;13363;52.772;-3.890;2023-04-25T04:32:17;1.30;99.90
25436;DHT22;13363;52.772;-3.890;2023-04-25T04:34:43;1.30;99.90
25436;DHT22;13363;52.772;-3.890;2023-04-25T04:37:10;1.30;99.90
25436;DHT22;13363;52.772;-3.890;2023-04-25T04:39:38;1.30;99.90
25436;DHT22;13363;52.772;-3.890;2023-04-25T04:42:04;1.20;99.90
25436;DHT22;13363;52.772;-3.890;2023-04-25T04:44:30;1.20;99.90
25436;DHT22;13363;52.772;-3.890;2023-04-25T04:46:59;1.20;99.90
25436;DHT22;13363;52.772;-3.890;2023-04-25T04:49:25;1.20;99.90
25436;DHT22;13363;52.772;-3.890;2023-04-25T04:51:51;1.20;99.90
25436;DHT22;13363;52.772;-3.890;2023-04-25T04:54:17;1.20;99.90
25436;DHT22;13363;52.772;-3.890;2023-04-25T04:56:43;1.10;99.90
25436;DHT22;13363;52.772;-3.890;2023-04-25T04:59:09;1.20;99.90
25436;DHT22;13363;52.772;-3.890;2023-04-25T05:01:36;1.10;99.90
25436;DHT22;13363;52.772;-3.890;2023-04-25T05:04:02;1.10;99.90
25436;DHT22;13363;52.772;-3.890;2023-04-25T05:06:29;1.10;99.90
25436;DHT22;13363;52.772;-3.890;2023-04-25T05:08:57;1.10;99.90
25436;DHT22;13363;52.772;-3.890;2023-04-25T05:11:23;1.10;99.90
25436;DHT22;13363;52.772;-3.890;2023-04-25T05:13:53;1.20;99.90
25436;DHT22;13363;52.772;-3.890;2023-04-25T05:16:19;1.20;99.90
25436;DHT22;13363;52.772;-3.890;2023-04-25T05:18:45;1.20;99.90
25436;DHT22;13363;52.772;-3.890;2023-04-25T05:21:11;1.30;99.90
25436;DHT22;13363;52.772;-3.890;2023-04-25T05:23:37;1.30;99.90
25436;DHT22;13363;52.772;-3.890;2023-04-25T05:26:02;1.40;99.90
25436;DHT22;13363;52.772;-3.890;2023-04-25T05:28:28;1.40;99.90
25436;DHT22;13363;52.772;-3.890;2023-04-25T05:30:54;1.40;99.90
25436;DHT22;13363;52.772;-3.890;2023-04-25T05:33:20;1.50;99.90
25436;DHT22;13363;52.772;-3.890;2023-04-25T05:35:46;1.50;99.90
25436;DHT22;13363;52.772;-3.890;2023-04-25T05:38:12;1.50;99.90
25436;DHT22;13363;52.772;-3.890;2023-04-25T05:40:38;1.50;99.90
25436;DHT22;13363;52.772;-3.890;2023-04-25T05:43:04;1.50;99.90
25436;DHT22;13363;52.772;-3.890;2023-04-25T05:45:29;1.50;99.90
25436;DHT22;13363;52.772;-3.890;2023-04-25T05:47:55;1.50;99.90
25436;DHT22;13363;52.772;-3.890;2023-04-25T05:50:21;1.60;99.90
25436;DHT22;13363;52.772;-3.890;2023-04-25T05:52:47;1.70;99.90
25436;DHT22;13363;52.772;-3.890;2023-04-25T05:55:13;1.70;99.90
25436;DHT22;13363;52.772;-3.890;2023-04-25T05:57:39;1.70;99.90
25436;DHT22;13363;52.772;-3.890;2023-04-25T06:00:11;1.80;99.90
25436;DHT22;13363;52.772;-3.890;2023-04-25T06:02:37;1.90;99.90
25436;DHT22;13363;52.772;-3.890;2023-04-25T06:05:03;2.00;99.90
25436;DHT22;13363;52.772;-3.890;2023-04-25T06:07:29;2.00;99.90
25436;DHT22;13363;52.772;-3.890;2023-04-25T06:09:56;2.10;99.90
25436;DHT22;13363;52.772;-3.890;2023-04-25T06:12:22;2.20;99.90
25436;DHT22;13363;52.772;-3.890;2023-04-25T06:14:48;2.30;99.90
25436;DHT22;13363;52.772;-3.890;2023-04-25T06:17:14;2.40;99.90
25436;DHT22;13363;52.772;-3.890;2023-04-25T06:19:39;2.50;99.90
25436;DHT22;13363;52.772;-3.890;2023-04-25T06:22:06;2.60;99.90
25436;DHT22;13363;52.772;-3.890;2023-04-25T06:24:33;2.60;99.90
25436;DHT22;13363;52.772;-3.890;2023-04-25T06:26:59;2.60;99.90
25436;DHT22;13363;52.772;-3.890;2023-04-25T06:29:25;2.50;99.90
25436;DHT22;13363;52.772;-3.890;2023-04-25T06:31:51;2.50;99.90
25436;DHT22;13363;52.772;-3.890;2023-04-25T06:34:17;2.40;99.90
25436;DHT22;13363;52.772;-3.890;2023-04-25T06:36:43;2.50;99.90
25436;DHT22;13363;52.772;-3.890;2023-04-25T06:39:10;3.10;99.90
25436;DHT22;13363;52.772;-3.890;2023-04-25T06:41:36;4.20;99.90
25436;DHT22;13363;52.772;-3.890;2023-04-25T06:44:02;5.30;99.90
25436;DHT22;13363;52.772;-3.890;2023-04-25T06:46:27;6.10;99.90
25436;DHT22;13363;52.772;-3.890;2023-04-25T06:48:53;7.30;99.90
25436;DHT22;13363;52.772;-3.890;2023-04-25T06:51:19;8.00;99.90
25436;DHT22;13363;52.772;-3.890;2023-04-25T06:53:45;8.80;99.90
25436;DHT22;13363;52.772;-3.890;2023-04-25T06:56:10;9.20;99.90
25436;DHT22;13363;52.772;-3.890;2023-04-25T06:58:36;9.20;99.90
25436;DHT22;13363;52.772;-3.890;2023-04-25T07:01:03;9.60;99.90
25436;DHT22;13363;52.772;-3.890;2023-04-25T07:03:28;10.10;99.90
25436;DHT22;13363;52.772;-3.890;2023-04-25T07:05:54;10.70;99.90
25436;DHT22;13363;52.772;-3.890;2023-04-25T07:08:20;11.00;99.90
25436;DHT22;13363;52.772;-3.890;2023-04-25T07:10:47;11.70;99.90
25436;DHT22;13363;52.772;-3.890;2023-04-25T07:13:12;12.50;99.90
25436;DHT22;13363;52.772;-3.890;2023-04-25T07:15:38;12.50;99.90
25436;DHT22;13363;52.772;-3.890;2023-04-25T07:18:04;11.90;99.90
25436;DHT22;13363;52.772;-3.890;2023-04-25T07:20:30;11.50;99.90
25436;DHT22;13363;52.772;-3.890;2023-04-25T07:22:56;10.80;99.90
25436;DHT22;13363;52.772;-3.890;2023-04-25T07:25:22;9.70;99.90
25436;DHT22;13363;52.772;-3.890;2023-04-25T07:27:48;8.90;99.90
25436;DHT22;13363;52.772;-3.890;2023-04-25T07:30:14;8.30;99.90
25436;DHT22;13363;52.772;-3.890;2023-04-25T07:32:40;8.00;99.90
25436;DHT22;13363;52.772;-3.890;2023-04-25T07:35:06;8.10;99.90
25436;DHT22;13363;52.772;-3.890;2023-04-25T07:37:34;9.00;99.90
25436;DHT22;13363;52.772;-3.890;2023-04-25T07:40:00;10.30;99.90
25436;DHT22;13363;52.772;-3.890;2023-04-25T07:42:25;11.20;99.90
25436;DHT22;13363;52.772;-3.890;2023-04-25T07:44:51;12.10;99.90
25436;DHT22;13363;52.772;-3.890;2023-04-25T07:47:17;12.60;99.90
25436;DHT22;13363;52.772;-3.890;2023-04-25T07:49:44;13.10;99.90
25436;DHT22;13363;52.772;-3.890;2023-04-25T07:52:12;13.10;99.90
25436;DHT22;13363;52.772;-3.890;2023-04-25T07:54:38;13.50;99.90
25436;DHT22;13363;52.772;-3.890;2023-04-25T07:57:04;14.10;99.90
25436;DHT22;13363;52.772;-3.890;2023-04-25T07:59:31;14.70;99.90
25436;DHT22;13363;52.772;-3.890;2023-04-25T08:01:57;14.80;99.90
25436;DHT22;13363;52.772;-3.890;2023-04-25T08:04:23;15.10;99.90
25436;DHT22;13363;52.772;-3.890;2023-04-25T08:06:50;15.40;99.90
25436;DHT22;13363;52.772;-3.890;2023-04-25T08:09:16;16.30;99.90
25436;DHT22;13363;52.772;-3.890;2023-04-25T08:11:42;15.60;99.90
25436;DHT22;13363;52.772;-3.890;2023-04-25T08:14:08;16.20;99.90
25436;DHT22;13363;52.772;-3.890;2023-04-25T08:16:34;15.80;99.90
25436;DHT22;13363;52.772;-3.890;2023-04-25T08:19:00;15.70;99.90
25436;DHT22;13363;52.772;-3.890;2023-04-25T08:21:26;15.30;99.90
25436;DHT22;13363;52.772;-3.890;2023-04-25T08:23:55;14.90;99.90
25436;DHT22;13363;52.772;-3.890;2023-04-25T08:26:21;14.60;99.90
25436;DHT22;13363;52.772;-3.890;2023-04-25T08:28:47;15.40;99.90
25436;DHT22;13363;52.772;-3.890;2023-04-25T08:31:13;15.90;99.90
25436;DHT22;13363;52.772;-3.890;2023-04-25T08:33:39;15.30;99.90
25436;DHT22;13363;52.772;-3.890;2023-04-25T08:36:05;15.30;99.90
25436;DHT22;13363;52.772;-3.890;2023-04-25T08:38:31;15.40;99.90
25436;DHT22;13363;52.772;-3.890;2023-04-25T08:40:57;16.50;99.90
25436;DHT22;13363;52.772;-3.890;2023-04-25T08:43:25;17.80;99.90
25436;DHT22;13363;52.772;-3.890;2023-04-25T08:45:53;19.00;99.90
25436;DHT22;13363;52.772;-3.890;2023-04-25T08:48:21;17.90;99.90
25436;DHT22;13363;52.772;-3.890;2023-04-25T08:50:54;17.10;99.90
25436;DHT22;13363;52.772;-3.890;2023-04-25T08:53:29;16.10;99.90
25436;DHT22;13363;52.772;-3.890;2023-04-25T08:55:57;15.60;99.90
25436;DHT22;13363;52.772;-3.890;2023-04-25T08:58:23;15.90;99.90
25436;DHT22;13363;52.772;-3.890;2023-04-25T09:00:50;16.30;99.90
25436;DHT22;13363;52.772;-3.890;2023-04-25T09:03:18;17.40;99.90
25436;DHT22;13363;52.772;-3.890;2023-04-25T09:05:44;17.30;99.90
25436;DHT22;13363;52.772;-3.890;2023-04-25T09:08:10;17.00;99.90
25436;DHT22;13363;52.772;-3.890;2023-04-25T09:10:37;17.80;99.90
25436;DHT22;13363;52.772;-3.890;2023-04-25T09:13:08;18.40;99.90
25436;DHT22;13363;52.772;-3.890;2023-04-25T09:15:55;19.00;99.90
25436;DHT22;13363;52.772;-3.890;2023-04-25T09:21:05;17.00;99.90
25436;DHT22;13363;52.772;-3.890;2023-04-25T09:23:40;16.30;99.90
25436;DHT22;13363;52.772;-3.890;2023-04-25T09:26:07;15.10;99.90
25436;DHT22;13363;52.772;-3.890;2023-04-25T09:28:34;15.60;99.90
25436;DHT22;13363;52.772;-3.890;2023-04-25T09:31:01;15.30;99.90
25436;DHT22;13363;52.772;-3.890;2023-04-25T09:33:33;15.40;99.90
25436;DHT22;13363;52.772;-3.890;2023-04-25T09:38:31;16.40;99.90
25436;DHT22;13363;52.772;-3.890;2023-04-25T09:40:57;16.10;99.90
25436;DHT22;13363;52.772;-3.890;2023-04-25T09:43:24;15.50;99.90
25436;DHT22;13363;52.772;-3.890;2023-04-25T09:45:53;15.50;99.90
25436;DHT22;13363;52.772;-3.890;2023-04-25T09:48:22;15.10;99.90
25436;DHT22;13363;52.772;-3.890;2023-04-25T09:51:10;16.00;99.90
25436;DHT22;13363;52.772;-3.890;2023-04-25T09:53:38;16.00;99.90
25436;DHT22;13363;52.772;-3.890;2023-04-25T09:56:06;15.40;99.90
25436;DHT22;13363;52.772;-3.890;2023-04-25T09:58:34;14.50;99.90
25436;DHT22;13363;52.772;-3.890;2023-04-25T10:01:03;13.80;99.90
25436;DHT22;13363;52.772;-3.890;2023-04-25T10:03:30;13.80;99.90
25436;DHT22;13363;52.772;-3.890;2023-04-25T10:06:04;13.90;99.90
25436;DHT22;13363;52.772;-3.890;2023-04-25T10:08:37;14.60;99.90
25436;DHT22;13363;52.772;-3.890;2023-04-25T10:11:07;14.80;99.90
25436;DHT22;13363;52.772;-3.890;2023-04-25T10:13:34;15.30;99.90
25436;DHT22;13363;52.772;-3.890;2023-04-25T10:16:04;15.80;99.90
25436;DHT22;13363;52.772;-3.890;2023-04-25T10:18:31;16.20;99.90
25436;DHT22;13363;52.772;-3.890;2023-04-25T10:21:02;16.90;99.90
25436;DHT22;13363;52.772;-3.890;2023-04-25T10:23:30;16.90;99.90
25436;DHT22;13363;52.772;-3.890;2023-04-25T10:25:57;15.90;99.90
25436;DHT22;13363;52.772;-3.890;2023-04-25T10:28:23;15.70;99.90
25436;DHT22;13363;52.772;-3.890;2023-04-25T10:31:07;15.50;99.90
25436;DHT22;13363;52.772;-3.890;2023-04-25T10:36:17;14.50;99.90
25436;DHT22;13363;52.772;-3.890;2023-04-25T10:38:44;14.10;99.90
25436;DHT22;13363;52.772;-3.890;2023-04-25T10:41:11;14.30;99.90
25436;DHT22;13363;52.772;-3.890;2023-04-25T10:43:47;13.80;99.90
25436;DHT22;13363;52.772;-3.890;2023-04-25T10:48:54;14.10;99.90
25436;DHT22;13363;52.772;-3.890;2023-04-25T10:51:30;14.30;99.90
25436;DHT22;13363;52.772;-3.890;2023-04-25T10:54:01;14.20;99.90
25436;DHT22;13363;52.772;-3.890;2023-04-25T10:56:32;14.30;99.90
25436;DHT22;13363;52.772;-3.890;2023-04-25T10:59:15;14.20;99.90
25436;DHT22;13363;52.772;-3.890;2023-04-25T11:01:53;14.10;99.90
25436;DHT22;13363;52.772;-3.890;2023-04-25T11:04:25;14.10;99.90
25436;DHT22;13363;52.772;-3.890;2023-04-25T11:07:07;14.00;99.90
25436;DHT22;13363;52.772;-3.890;2023-04-25T11:09:39;13.70;99.90
25436;DHT22;13363;52.772;-3.890;2023-04-25T11:12:08;13.60;99.90
25436;DHT22;13363;52.772;-3.890;2023-04-25T11:14:34;13.20;99.90
25436;DHT22;13363;52.772;-3.890;2023-04-25T11:17:00;13.30;99.90
25436;DHT22;13363;52.772;-3.890;2023-04-25T11:19:28;13.70;99.90
25436;DHT22;13363;52.772;-3.890;2023-04-25T11:21:59;14.40;99.90
25436;DHT22;13363;52.772;-3.890;2023-04-25T11:24:27;14.30;99.90
25436;DHT22;13363;52.772;-3.890;2023-04-25T11:26:53;14.30;99.90
25436;DHT22;13363;52.772;-3.890;2023-04-25T11:29:26;14.20;99.90
25436;DHT22;13363;52.772;-3.890;2023-04-25T11:31:52;14.30;99.90
25436;DHT22;13363;52.772;-3.890;2023-04-25T11:34:19;14.30;99.90
25436;DHT22;13363;52.772;-3.890;2023-04-25T11:36:45;14.20;99.90
25436;DHT22;13363;52.772;-3.890;2023-04-25T11:39:14;14.00;99.90
25436;DHT22;13363;52.772;-3.890;2023-04-25T11:41:42;13.70;99.90
25436;DHT22;13363;52.772;-3.890;2023-04-25T11:44:08;13.70;99.90
25436;DHT22;13363;52.772;-3.890;2023-04-25T11:46:34;13.60;99.90
25436;DHT22;13363;52.772;-3.890;2023-04-25T11:49:00;13.70;99.90
25436;DHT22;13363;52.772;-3.890;2023-04-25T11:51:26;14.00;99.90
25436;DHT22;13363;52.772;-3.890;2023-04-25T11:53:53;14.00;99.90
25436;DHT22;13363;52.772;-3.890;2023-04-25T11:56:19;13.80;99.90
25436;DHT22;13363;52.772;-3.890;2023-04-25T11:59:02;13.90;99.90
25436;DHT22;13363;52.772;-3.890;2023-04-25T12:01:32;14.00;99.90
25436;DHT22;13363;52.772;-3.890;2023-04-25T12:04:09;14.00;99.90
25436;DHT22;13363;52.772;-3.890;2023-04-25T12:06:39;13.60;99.90
25436;DHT22;13363;52.772;-3.890;2023-04-25T12:09:10;13.40;99.90
25436;DHT22;13363;52.772;-3.890;2023-04-25T12:11:43;13.30;99.90
25436;DHT22;13363;52.772;-3.890;2023-04-25T12:14:10;13.10;99.90
25436;DHT22;13363;52.772;-3.890;2023-04-25T12:16:46;13.10;99.90
25436;DHT22;13363;52.772;-3.890;2023-04-25T12:19:19;12.90;99.90
25436;DHT22;13363;52.772;-3.890;2023-04-25T12:21:54;13.00;99.90
25436;DHT22;13363;52.772;-3.890;2023-04-25T12:24:25;13.10;99.90
25436;DHT22;13363;52.772;-3.890;2023-04-25T12:27:05;13.30;99.90
25436;DHT22;13363;52.772;-3.890;2023-04-25T12:29:33;13.40;99.90
25436;DHT22;13363;52.772;-3.890;2023-04-25T12:31:59;13.50;99.90
25436;DHT22;13363;52.772;-3.890;2023-04-25T12:34:28;13.60;99.90
25436;DHT22;13363;52.772;-3.890;2023-04-25T12:36:54;13.50;99.90
25436;DHT22;13363;52.772;-3.890;2023-04-25T12:39:21;13.60;99.90
25436;DHT22;13363;52.772;-3.890;2023-04-25T12:41:48;13.70;99.90
25436;DHT22;13363;52.772;-3.890;2023-04-25T12:44:14;13.80;99.90
25436;DHT22;13363;52.772;-3.890;2023-04-25T12:46:41;13.70;99.90
25436;DHT22;13363;52.772;-3.890;2023-04-25T12:49:07;13.60;99.90
25436;DHT22;13363;52.772;-3.890;2023-04-25T12:51:37;13.50;99.90
25436;DHT22;13363;52.772;-3.890;2023-04-25T12:54:04;13.00;99.90
25436;DHT22;13363;52.772;-3.890;2023-04-25T12:56:30;13.00;99.90
25436;DHT22;13363;52.772;-3.890;2023-04-25T12:58:57;12.90;99.90
25436;DHT22;13363;52.772;-3.890;2023-04-25T13:01:23;12.80;99.90
25436;DHT22;13363;52.772;-3.890;2023-04-25T13:03:49;12.70;99.90
25436;DHT22;13363;52.772;-3.890;2023-04-25T13:06:17;12.90;99.90
25436;DHT22;13363;52.772;-3.890;2023-04-25T13:08:43;13.30;99.90
25436;DHT22;13363;52.772;-3.890;2023-04-25T13:11:09;13.50;99.90
25436;DHT22;13363;52.772;-3.890;2023-04-25T13:13:35;13.70;99.90
25436;DHT22;13363;52.772;-3.890;2023-04-25T13:16:02;13.70;99.90
25436;DHT22;13363;52.772;-3.890;2023-04-25T13:18:29;13.70;99.90
25436;DHT22;13363;52.772;-3.890;2023-04-25T13:20:55;14.70;99.90
25436;DHT22;13363;52.772;-3.890;2023-04-25T13:23:22;14.20;99.90
25436;DHT22;13363;52.772;-3.890;2023-04-25T13:25:48;14.40;99.90
25436;DHT22;13363;52.772;-3.890;2023-04-25T13:28:14;14.50;99.90
25436;DHT22;13363;52.772;-3.890;2023-04-25T13:30:41;14.50;99.90
25436;DHT22;13363;52.772;-3.890;2023-04-25T13:33:07;14.50;99.90
25436;DHT22;13363;52.772;-3.890;2023-04-25T13:35:34;14.50;99.90
25436;DHT22;13363;52.772;-3.890;2023-04-25T13:38:00;14.60;99.90
25436;DHT22;13363;52.772;-3.890;2023-04-25T13:40:27;14.80;99.90
25436;DHT22;13363;52.772;-3.890;2023-04-25T13:42:53;14.80;99.90
25436;DHT22;13363;52.772;-3.890;2023-04-25T13:45:19;14.80;99.90
25436;DHT22;13363;52.772;-3.890;2023-04-25T13:47:45;14.80;99.90
25436;DHT22;13363;52.772;-3.890;2023-04-25T13:50:11;14.90;99.90
25436;DHT22;13363;52.772;-3.890;2023-04-25T13:52:37;15.00;99.90
25436;DHT22;13363;52.772;-3.890;2023-04-25T13:55:03;14.50;99.90
25436;DHT22;13363;52.772;-3.890;2023-04-25T13:57:32;14.40;99.90
25436;DHT22;13363;52.772;-3.890;2023-04-25T13:59:58;14.30;99.90
25436;DHT22;13363;52.772;-3.890;2023-04-25T14:02:24;14.30;99.90
25436;DHT22;13363;52.772;-3.890;2023-04-25T14:04:51;14.20;99.90
25436;DHT22;13363;52.772;-3.890;2023-04-25T14:07:18;13.90;99.90
25436;DHT22;13363;52.772;-3.890;2023-04-25T14:09:46;13.80;99.90
25436;DHT22;13363;52.772;-3.890;2023-04-25T14:12:12;14.00;99.90
25436;DHT22;13363;52.772;-3.890;2023-04-25T14:14:38;13.80;99.90
25436;DHT22;13363;52.772;-3.890;2023-04-25T14:17:03;13.80;99.90
25436;DHT22;13363;52.772;-3.890;2023-04-25T14:19:29;13.80;99.90
25436;DHT22;13363;52.772;-3.890;2023-04-25T14:21:55;13.90;99.90
25436;DHT22;13363;52.772;-3.890;2023-04-25T14:24:21;14.10;99.90
25436;DHT22;13363;52.772;-3.890;2023-04-25T14:26:47;14.20;99.90
25436;DHT22;13363;52.772;-3.890;2023-04-25T14:29:13;14.40;99.90
25436;DHT22;13363;52.772;-3.890;2023-04-25T14:31:40;14.50;99.90
25436;DHT22;13363;52.772;-3.890;2023-04-25T14:34:06;14.20;99.90
25436;DHT22;13363;52.772;-3.890;2023-04-25T14:36:33;14.10;99.90
25436;DHT22;13363;52.772;-3.890;2023-04-25T14:38:59;14.00;99.90
25436;DHT22;13363;52.772;-3.890;2023-04-25T14:41:26;13.90;99.90
25436;DHT22;13363;52.772;-3.890;2023-04-25T14:43:52;13.90;99.90
25436;DHT22;13363;52.772;-3.890;2023-04-25T14:46:31;13.90;99.90
25436;DHT22;13363;52.772;-3.890;2023-04-25T14:52:20;13.80;99.90
25436;DHT22;13363;52.772;-3.890;2023-04-25T14:54:46;14.00;99.90
25436;DHT22;13363;52.772;-3.890;2023-04-25T14:57:13;13.70;99.90
25436;DHT22;13363;52.772;-3.890;2023-04-25T15:02:05;13.30;99.90
25436;DHT22;13363;52.772;-3.890;2023-04-25T15:04:31;13.50;99.90
25436;DHT22;13363;52.772;-3.890;2023-04-25T15:06:57;13.40;99.90
25436;DHT22;13363;52.772;-3.890;2023-04-25T15:09:23;13.20;99.90
25436;DHT22;13363;52.772;-3.890;2023-04-25T15:11:50;13.20;99.90
25436;DHT22;13363;52.772;-3.890;2023-04-25T15:14:17;13.10;99.90
25436;DHT22;13363;52.772;-3.890;2023-04-25T15:16:43;13.00;99.90
25436;DHT22;13363;52.772;-3.890;2023-04-25T15:19:08;13.00;99.90
25436;DHT22;13363;52.772;-3.890;2023-04-25T15:21:35;13.10;99.90
25436;DHT22;13363;52.772;-3.890;2023-04-25T15:24:01;13.20;99.90
25436;DHT22;13363;52.772;-3.890;2023-04-25T15:26:27;13.10;99.90
25436;DHT22;13363;52.772;-3.890;2023-04-25T15:28:53;13.10;99.90
25436;DHT22;13363;52.772;-3.890;2023-04-25T15:31:19;13.30;99.90
25436;DHT22;13363;52.772;-3.890;2023-04-25T15:33:45;13.30;99.90
25436;DHT22;13363;52.772;-3.890;2023-04-25T15:36:11;13.30;99.90
25436;DHT22;13363;52.772;-3.890;2023-04-25T15:38:37;13.40;99.90